createdAt,value
2023-01-21T00:01:33.018Z,25.2
2023-01-21T00:04:20.362Z,27
2023-01-21T00:07:07.873Z,25.5
2023-01-21T00:09:55.263Z,24.2
2023-01-21T00:12:42.701Z,23
2023-01-21T00:15:30.074Z,23
2023-01-21T00:18:17.824Z,24.3
2023-01-21T00:21:05.591Z,27
2023-01-21T00:23:53.042Z,25.3
2023-01-21T00:26:40.259Z,28.5
2023-01-21T00:29:27.679Z,28
2023-01-21T00:32:15.122Z,24.3
2023-01-21T00:35:04.114Z,30.5
2023-01-21T00:37:52.733Z,25.1
2023-01-21T00:40:40.570Z,27.8
2023-01-21T00:43:32.986Z,22.6
2023-01-21T00:46:21.126Z,27.5
2023-01-21T00:49:08.610Z,30.9
2023-01-21T00:51:55.919Z,26.9
2023-01-21T00:54:43.448Z,31.1
2023-01-21T00:57:30.773Z,24.6
2023-01-21T01:00:18.896Z,30.5
2023-01-21T01:03:06.691Z,27.2
2023-01-21T01:05:54.219Z,28.6
2023-01-21T01:08:47.235Z,24.1
2023-01-21T01:11:35.105Z,30.7
2023-01-21T01:14:22.487Z,26.9
2023-01-21T01:17:10.072Z,27.5
2023-01-21T01:19:57.422Z,32.5
2023-01-21T01:22:44.723Z,29.3
2023-01-21T01:25:32.080Z,32.1
2023-01-21T01:28:19.885Z,29.4
2023-01-21T01:31:07.523Z,32.7
2023-01-21T01:33:58.731Z,36.8
2023-01-21T01:36:46.124Z,36
2023-01-21T01:39:34.099Z,28.3
2023-01-21T01:42:21.686Z,32.9
2023-01-21T01:45:09.218Z,29.3
2023-01-21T01:48:04.798Z,31.7
2023-01-21T01:50:54.677Z,30.8
2023-01-21T01:53:44.497Z,29.6
2023-01-21T01:56:33.193Z,27.8
2023-01-21T01:59:23.323Z,33.6
2023-01-21T02:02:12.324Z,33.3
2023-01-21T02:05:03.270Z,29.8
2023-01-21T02:07:53.481Z,28.4
2023-01-21T02:10:40.964Z,35.1
2023-01-21T02:13:28.268Z,35.1
2023-01-21T02:16:18.221Z,32.9
2023-01-21T02:19:25.191Z,33.5
2023-01-21T02:22:28.699Z,29.7
2023-01-21T02:25:24.919Z,35
2023-01-21T02:30:59.559Z,32.4
2023-01-21T02:34:30.814Z,31.1
2023-01-21T02:37:24.956Z,26.7
2023-01-21T02:40:21.459Z,25.4
2023-01-21T02:43:21.438Z,31.7
2023-01-21T02:46:18.232Z,32.4
2023-01-21T02:49:13.519Z,26.5
2023-01-21T02:52:07.682Z,24.9
2023-01-21T02:55:04.005Z,27.9
2023-01-21T02:57:57.416Z,25.8
2023-01-21T03:00:49.143Z,30.7
2023-01-21T03:03:57.965Z,27.2
2023-01-21T03:07:00.814Z,26.4
2023-01-21T03:09:53.987Z,24.5
2023-01-21T03:12:46.511Z,25.7
2023-01-21T03:15:45.758Z,27.7
2023-01-21T03:19:11.727Z,26.7
2023-01-21T03:22:03.098Z,24.5
2023-01-21T03:24:56.010Z,23.7
2023-01-21T03:27:44.723Z,25.8
2023-01-21T03:30:33.695Z,23.9
2023-01-21T03:33:25.238Z,25.1
2023-01-21T03:36:17.323Z,19.6
2023-01-21T03:39:13.764Z,23.9
2023-01-21T03:42:07.755Z,28.2
2023-01-21T03:44:55.532Z,27.6
2023-01-21T03:47:43.005Z,24.1
2023-01-21T03:50:37.369Z,19.3
2023-01-21T03:53:29.203Z,28.3
2023-01-21T03:56:16.491Z,24.2
2023-01-21T03:59:04.774Z,24.2
2023-01-21T04:01:52.187Z,24.2
2023-01-21T04:04:39.569Z,25.4
2023-01-21T04:07:26.900Z,27.3
2023-01-21T04:10:14.646Z,25.1
2023-01-21T04:13:02.967Z,23.9
2023-01-21T04:15:50.296Z,24.9
2023-01-21T04:18:37.621Z,24.5
2023-01-21T04:21:25.023Z,19.3
2023-01-21T04:24:12.326Z,27.3
2023-01-21T04:26:59.687Z,22.6
2023-01-21T04:29:47.075Z,23.9
2023-01-21T04:32:34.481Z,24.1
2023-01-21T04:35:21.990Z,21.6
2023-01-21T04:38:09.257Z,23.1
2023-01-21T04:40:56.699Z,24.8
2023-01-21T04:43:44.135Z,23.6
2023-01-21T04:46:31.565Z,23.7
2023-01-21T04:49:19.289Z,24.2
2023-01-21T04:52:07.129Z,23.8
2023-01-21T04:54:54.505Z,21
2023-01-21T04:57:42.027Z,29.4
2023-01-21T05:00:29.388Z,25.7
2023-01-21T05:03:16.721Z,24.6
2023-01-21T05:06:05.189Z,24.4
2023-01-21T05:08:52.937Z,29.6
2023-01-21T05:11:41.341Z,21.9
2023-01-21T05:14:29.148Z,24.5
2023-01-21T05:17:16.452Z,22.6
2023-01-21T05:20:04.857Z,22.2
2023-01-21T05:22:53.556Z,26.5
2023-01-21T05:25:40.915Z,22.6
2023-01-21T05:28:28.393Z,31.2
2023-01-21T05:31:15.639Z,22.5
2023-01-21T05:34:03.277Z,22.9
2023-01-21T05:36:50.566Z,22.2
2023-01-21T05:39:37.900Z,20.8
2023-01-21T05:42:25.445Z,21
2023-01-21T05:45:12.836Z,23.6
2023-01-21T05:48:00.453Z,24.5
2023-01-21T05:50:47.900Z,21
2023-01-21T05:53:35.974Z,19.1
2023-01-21T05:56:23.292Z,19.5
2023-01-21T05:59:10.806Z,21.3
2023-01-21T06:01:58.310Z,24.2
2023-01-21T06:04:45.628Z,20
2023-01-21T06:07:33.002Z,21.3
2023-01-21T06:10:20.306Z,20
2023-01-21T06:13:07.732Z,19.3
2023-01-21T06:15:56.751Z,19.5
2023-01-21T06:18:44.109Z,17.5
2023-01-21T06:21:31.776Z,22.9
2023-01-21T06:24:19.302Z,22.1
2023-01-21T06:27:06.760Z,20.3
2023-01-21T06:29:54.166Z,17.4
2023-01-21T06:32:41.397Z,18
2023-01-21T06:35:28.779Z,20.8
2023-01-21T06:38:16.256Z,22.2
2023-01-21T06:41:04.329Z,21.2
2023-01-21T06:43:51.714Z,15.5
2023-01-21T06:46:43.340Z,20.2
2023-01-21T06:49:33.093Z,18.2
2023-01-21T06:52:20.575Z,17.2
2023-01-21T06:55:08.916Z,19.2
2023-01-21T06:57:56.907Z,17.8
2023-01-21T07:00:44.301Z,16.6
2023-01-21T07:03:31.581Z,19.6
2023-01-21T07:06:19.194Z,19.4
2023-01-21T07:09:06.999Z,19.9
2023-01-21T07:11:54.617Z,15.3
2023-01-21T07:14:43.244Z,17.9
2023-01-21T07:17:30.542Z,16.5
2023-01-21T07:20:18.198Z,16.8
2023-01-21T07:23:07.239Z,19.7
2023-01-21T07:25:54.600Z,16.9
2023-01-21T07:28:42.504Z,14.4
2023-01-21T07:31:30.264Z,14.6
2023-01-21T07:34:17.924Z,14.3
2023-01-21T07:37:06.163Z,17.1
2023-01-21T07:39:54.681Z,19
2023-01-21T07:42:41.995Z,14.3
2023-01-21T07:45:29.348Z,16.6
2023-01-21T07:48:16.707Z,14
2023-01-21T07:51:04.978Z,17.3
2023-01-21T07:53:52.888Z,13.7
2023-01-21T07:56:41.220Z,13
2023-01-21T07:59:28.556Z,14.4
2023-01-21T08:02:15.987Z,16.9
2023-01-21T08:05:04.033Z,12.9
2023-01-21T08:07:52.130Z,13.3
2023-01-21T08:10:43.222Z,14.7
2023-01-21T08:13:35.399Z,9.3
2023-01-21T08:16:22.764Z,13
2023-01-21T08:19:12.555Z,15.5
2023-01-21T08:22:01.005Z,13
2023-01-21T08:24:48.367Z,13.2
2023-01-21T08:27:35.729Z,11.6
2023-01-21T08:30:23.143Z,12.2
2023-01-21T08:33:10.851Z,12.4
2023-01-21T08:35:58.709Z,12.1
2023-01-21T08:38:48.716Z,17.7
2023-01-21T08:41:38.071Z,9.8
2023-01-21T08:44:25.450Z,12.2
2023-01-21T08:47:12.770Z,14.5
2023-01-21T08:50:00.124Z,10.7
2023-01-21T08:52:48.214Z,13.2
2023-01-21T08:55:37.697Z,12.1
2023-01-21T08:58:25.693Z,10.2
2023-01-21T09:01:13.224Z,10.7
2023-01-21T09:04:00.659Z,13.7
2023-01-21T09:06:48.142Z,9.8
2023-01-21T09:09:35.594Z,8
2023-01-21T09:12:22.901Z,9.3
2023-01-21T09:15:10.236Z,10.8
2023-01-21T09:17:57.532Z,10
2023-01-21T09:20:44.946Z,8.2
2023-01-21T09:23:32.298Z,10.9
2023-01-21T09:26:20.371Z,12.2
2023-01-21T09:29:08.972Z,9.1
2023-01-21T09:31:56.421Z,7.6
2023-01-21T09:34:43.805Z,8.5
2023-01-21T09:37:31.170Z,10.7
2023-01-21T09:40:19.744Z,9.3
2023-01-21T09:43:07.124Z,7.8
2023-01-21T09:46:03.007Z,10.1
2023-01-21T09:48:59.957Z,10.3
2023-01-21T09:51:52.753Z,11.6
2023-01-21T09:54:48.046Z,7.5
2023-01-21T09:57:35.723Z,11.1
2023-01-21T10:00:44.708Z,8.7
2023-01-21T10:03:37.666Z,9.5
2023-01-21T10:06:34.169Z,12.5
2023-01-21T10:09:29.030Z,11.9
2023-01-21T10:12:30.931Z,11.2
2023-01-21T10:15:40.427Z,13.7
2023-01-21T10:18:37.751Z,10.9
2023-01-21T10:21:29.144Z,12
2023-01-21T10:24:22.493Z,9.9
2023-01-21T10:27:14.151Z,12.2
2023-01-21T10:30:07.418Z,9.7
2023-01-21T10:33:07.514Z,11.2
2023-01-21T10:36:03.259Z,7.4
2023-01-21T10:39:31.472Z,10
2023-01-21T10:42:31.417Z,7.8
2023-01-21T10:45:32.556Z,7.7
2023-01-21T10:48:29.964Z,7.3
2023-01-21T10:51:30.282Z,9.7
2023-01-21T10:54:26.236Z,9
2023-01-21T10:57:26.987Z,8.3
2023-01-21T11:00:34.833Z,7.6
2023-01-21T11:03:27.672Z,7.3
2023-01-21T11:06:23.514Z,6.7
2023-01-21T11:09:14.374Z,6.6
2023-01-21T11:12:01.718Z,6.1
2023-01-21T11:14:49.639Z,7.7
2023-01-21T11:17:41.703Z,8.1
2023-01-21T11:20:31.717Z,8.3
2023-01-21T11:23:24.701Z,7
2023-01-21T11:26:15.108Z,6.1
2023-01-21T11:29:07.484Z,6.2
2023-01-21T11:31:59.197Z,6.8
2023-01-21T11:34:50.049Z,8.7
2023-01-21T11:37:47.161Z,11.8
2023-01-21T11:40:34.533Z,9.4
2023-01-21T11:43:21.886Z,17.4
2023-01-21T11:46:19.385Z,8.8
2023-01-21T11:49:12.997Z,5.2
2023-01-21T11:52:07.388Z,10.1
2023-01-21T11:55:04.894Z,6.5
2023-01-21T11:58:04.974Z,7.5
2023-01-21T12:01:02.759Z,5.7
2023-01-21T12:03:53.773Z,6.2
2023-01-21T12:06:45.532Z,6
2023-01-21T12:09:36.184Z,6
2023-01-21T12:12:26.186Z,6
2023-01-21T12:15:28.235Z,5.3
2023-01-21T12:18:30.009Z,4.3
2023-01-21T12:21:32.791Z,9
2023-01-21T12:24:34.985Z,6.1
2023-01-21T12:27:36.253Z,5.2
2023-01-21T12:30:36.884Z,9.6
2023-01-21T12:33:36.120Z,13.9
2023-01-21T12:36:34.183Z,10.5
2023-01-21T12:39:27.973Z,33.1
2023-01-21T12:42:21.245Z,8.7
2023-01-21T12:45:16.531Z,5.8
2023-01-21T12:48:09.387Z,88.3
2023-01-21T12:51:04.698Z,19.7
2023-01-21T12:54:05.061Z,24.9
2023-01-21T12:57:01.826Z,6.1
2023-01-21T12:59:58.657Z,31
2023-01-21T13:02:51.119Z,11.4
2023-01-21T13:05:54.621Z,7.3
2023-01-21T13:08:46.989Z,8.3
2023-01-21T13:11:44.112Z,7.7
2023-01-21T13:14:37.784Z,5.9
2023-01-21T13:17:29.227Z,4.3
2023-01-21T13:20:19.694Z,4.3
2023-01-21T13:23:08.390Z,5
2023-01-21T13:26:03.962Z,8.4
2023-01-21T13:28:59.772Z,6.8
2023-01-21T13:31:57.485Z,12.3
2023-01-21T13:35:04.783Z,5.1
2023-01-21T13:38:08.237Z,9.4
2023-01-21T13:41:08.361Z,39.2
2023-01-21T13:44:08.129Z,8.8
2023-01-21T13:47:19.295Z,12.2
2023-01-21T13:50:17.385Z,24.3
2023-01-21T13:53:15.472Z,13.1
2023-01-21T13:56:27.009Z,4.5
2023-01-21T13:59:29.314Z,13.3
2023-01-21T14:02:21.825Z,7.7
2023-01-21T14:05:14.834Z,8.7
2023-01-21T14:08:08.857Z,9.2
2023-01-21T14:11:05.312Z,5.5
2023-01-21T14:13:57.471Z,5.7
2023-01-21T14:17:01.885Z,4.3
2023-01-21T14:20:09.725Z,4.1
2023-01-21T14:23:36.499Z,6
2023-01-21T14:26:49.531Z,3.7
2023-01-21T14:29:51.205Z,6.5
2023-01-21T14:32:43.968Z,3
2023-01-21T14:35:34.921Z,4.6
2023-01-21T14:38:28.205Z,10.3
2023-01-21T14:41:25.779Z,10.8
2023-01-21T14:44:39.601Z,25.6
2023-01-21T14:47:29.784Z,10.7
2023-01-21T14:50:35.787Z,15.2
2023-01-21T14:53:37.799Z,7.4
2023-01-21T14:56:31.304Z,7.1
2023-01-21T14:59:20.199Z,10.3
2023-01-21T15:02:19.448Z,7.6
2023-01-21T15:05:14.469Z,23.8
2023-01-21T15:08:08.739Z,5.2
2023-01-21T15:11:03.750Z,18.5
2023-01-21T15:13:53.112Z,48.7
2023-01-21T15:16:51.992Z,19.1
2023-01-21T15:19:39.469Z,7.9
2023-01-21T15:22:26.782Z,10.1
2023-01-21T15:25:31.381Z,21.2
2023-01-21T15:28:21.471Z,12.2
2023-01-21T15:31:28.350Z,9
2023-01-21T15:34:31.667Z,7.6
2023-01-21T15:37:19.466Z,7.5
2023-01-21T15:40:09.426Z,8.7
2023-01-21T15:43:05.300Z,11.1
2023-01-21T15:46:04.764Z,7.1
2023-01-21T15:49:09.402Z,4
2023-01-21T15:52:18.948Z,13.1
2023-01-21T15:55:21.482Z,7.8
2023-01-21T15:58:31.883Z,7.5
2023-01-21T16:01:31.336Z,5.9
2023-01-21T16:04:21.772Z,3.3
2023-01-21T16:07:19.887Z,3.4
2023-01-21T16:10:18.165Z,4.5
2023-01-21T16:13:15.963Z,5.4
2023-01-21T16:16:13.165Z,4.6
2023-01-21T16:19:12.230Z,10.1
2023-01-21T16:22:01.948Z,7.7
2023-01-21T16:24:54.595Z,6.1
2023-01-21T16:27:47.564Z,5.1
2023-01-21T16:30:37.792Z,5.1
2023-01-21T16:33:25.273Z,5
2023-01-21T16:36:12.725Z,5.2
2023-01-21T16:39:00.363Z,4.1
2023-01-21T16:41:53.813Z,6.6
2023-01-21T16:44:47.220Z,4.7
2023-01-21T16:47:35.149Z,5.1
2023-01-21T16:50:22.549Z,3.7
2023-01-21T16:53:12.139Z,9.7
2023-01-21T16:56:01.599Z,6.6
2023-01-21T16:58:49.270Z,5.6
2023-01-21T17:01:36.664Z,5.2
2023-01-21T17:04:23.969Z,5.2
2023-01-21T17:07:12.777Z,5.6
2023-01-21T17:10:02.754Z,6.4
2023-01-21T17:13:02.876Z,4.9
2023-01-21T17:15:55.011Z,6.4
2023-01-21T17:18:46.462Z,5.4
2023-01-21T17:21:38.877Z,11.1
2023-01-21T17:24:30.938Z,7.5
2023-01-21T17:27:22.473Z,9.6
2023-01-21T17:30:10.936Z,6
2023-01-21T17:33:10.215Z,6.7
2023-01-21T17:36:15.233Z,9.2
2023-01-21T17:39:16.734Z,7.7
2023-01-21T17:42:45.387Z,8.6
2023-01-21T17:45:32.703Z,11.8
2023-01-21T17:48:23.242Z,9.3
2023-01-21T17:51:14.280Z,10.8
2023-01-21T17:54:04.241Z,7.4
2023-01-21T17:57:02.528Z,10
2023-01-21T17:59:50.002Z,60.3
2023-01-21T18:02:37.356Z,14.3
2023-01-21T18:05:24.851Z,11.3
2023-01-21T18:08:13.002Z,12.9
2023-01-21T18:11:02.555Z,13
2023-01-21T18:13:50.489Z,14.9
2023-01-21T18:16:37.926Z,17.6
2023-01-21T18:19:25.210Z,11.7
2023-01-21T18:22:16.576Z,9.3
2023-01-21T18:25:08.566Z,16.8
2023-01-21T18:27:58.413Z,11.2
2023-01-21T18:30:45.866Z,17.2
2023-01-21T18:33:34.292Z,12.7
2023-01-21T18:36:21.991Z,15.1
2023-01-21T18:39:09.401Z,13.4
2023-01-21T18:41:58.980Z,13.7
2023-01-21T18:44:46.268Z,11.5
2023-01-21T18:47:33.605Z,45.3
2023-01-21T18:50:20.918Z,19.1
2023-01-21T18:53:10.339Z,26.4
2023-01-21T18:55:58.516Z,24.3
2023-01-21T18:58:46.180Z,10.1
2023-01-21T19:01:33.643Z,18.2
2023-01-21T19:04:21.155Z,11
2023-01-21T19:07:08.551Z,26.8
2023-01-21T19:09:59.867Z,36
2023-01-21T19:12:48.177Z,81
2023-01-21T19:15:35.726Z,25.7
2023-01-21T19:18:23.558Z,49.6
2023-01-21T19:21:11.217Z,33.8
2023-01-21T19:23:58.618Z,44
2023-01-21T19:26:46.036Z,31.4
2023-01-21T19:29:33.380Z,46.8
2023-01-21T19:32:20.799Z,28.5
2023-01-21T19:35:08.299Z,21.1
2023-01-21T19:37:58.656Z,17
2023-01-21T19:40:48.937Z,15.6
2023-01-21T19:43:36.361Z,16.2
2023-01-21T19:46:23.772Z,12.5
2023-01-21T19:49:13.229Z,17.8
2023-01-21T19:52:02.004Z,18.7
2023-01-21T19:54:50.309Z,19.6
2023-01-21T19:57:37.615Z,14.8
2023-01-21T20:00:25.234Z,19.1
2023-01-21T20:03:16.050Z,18.1
2023-01-21T20:06:05.219Z,22.7
2023-01-21T20:08:56.169Z,18
2023-01-21T20:11:44.881Z,28.7
2023-01-21T20:14:32.263Z,11.5
2023-01-21T20:17:20.200Z,16.8
2023-01-21T20:20:07.551Z,18.2
2023-01-21T20:23:05.146Z,21.1
2023-01-21T20:25:58.570Z,17.3
2023-01-21T20:28:45.866Z,20.8
2023-01-21T20:31:35.843Z,18.1
2023-01-21T20:34:23.407Z,19.4
2023-01-21T20:37:12.899Z,32.2
2023-01-21T20:40:00.240Z,41.8
2023-01-21T20:42:48.024Z,63.5
2023-01-21T20:45:36.759Z,20.9
2023-01-21T20:48:28.374Z,13.7
2023-01-21T20:51:18.888Z,13.8
2023-01-21T20:54:06.836Z,18.7
2023-01-21T20:56:54.336Z,15.3
2023-01-21T20:59:41.824Z,10.4
2023-01-21T21:02:29.192Z,10.5
2023-01-21T21:05:17.076Z,10.7
2023-01-21T21:08:05.674Z,13.4
2023-01-21T21:10:58.610Z,25.6
2023-01-21T21:13:46.023Z,18.3
2023-01-21T21:16:36.520Z,28.8
2023-01-21T21:19:24.326Z,25.9
2023-01-21T21:22:11.785Z,10.4
2023-01-21T21:25:00.775Z,18.2
2023-01-21T21:27:48.471Z,13
2023-01-21T21:30:36.348Z,11.9
2023-01-21T21:33:23.988Z,16.8
2023-01-21T21:36:12.725Z,9.8
2023-01-21T21:39:02.096Z,11.8
2023-01-21T21:41:49.984Z,13.7
2023-01-21T21:45:08.858Z,13.9
2023-01-21T21:47:56.392Z,18.7
2023-01-21T21:51:15.598Z,14.2
2023-01-21T21:54:03.132Z,14.6
2023-01-21T21:56:52.395Z,9.7
2023-01-21T21:59:40.128Z,9
2023-01-21T22:02:27.699Z,13.2
2023-01-21T22:05:15.473Z,14.5
2023-01-21T22:08:03.049Z,15
2023-01-21T22:10:50.953Z,9.6
2023-01-21T22:13:42.060Z,11.7
2023-01-21T22:16:33.564Z,10.7
2023-01-21T22:19:21.149Z,11.6
2023-01-21T22:22:08.977Z,9.4
2023-01-21T22:24:56.262Z,8.8
2023-01-21T22:27:43.587Z,13.7
2023-01-21T22:30:31.102Z,17.1
2023-01-21T22:33:18.717Z,11.3
2023-01-21T22:36:06.864Z,12.1
2023-01-21T22:38:57.529Z,9.8
2023-01-21T22:41:45.676Z,11.6
2023-01-21T22:44:32.977Z,11.2
2023-01-21T22:47:20.492Z,10
2023-01-21T22:50:07.978Z,8.9
2023-01-21T22:52:56.507Z,11.4
2023-01-21T22:55:43.820Z,17.1
2023-01-21T22:58:38.191Z,11.1
2023-01-21T23:01:25.891Z,8.8
2023-01-21T23:04:15.613Z,9.7
2023-01-21T23:07:03.212Z,9.3
2023-01-21T23:09:50.590Z,7.4
2023-01-21T23:12:37.870Z,9.6
2023-01-21T23:15:25.244Z,12.8
2023-01-21T23:18:12.739Z,8.8
2023-01-21T23:21:00.522Z,9.8
2023-01-21T23:23:51.256Z,8.6
2023-01-21T23:26:38.608Z,8.7
2023-01-21T23:29:26.708Z,8.2
2023-01-21T23:32:14.018Z,9.2
2023-01-21T23:35:01.398Z,9.7
2023-01-21T23:37:49.150Z,10.1
2023-01-21T23:40:36.670Z,9.6
2023-01-21T23:43:23.994Z,15.1
2023-01-21T23:46:12.309Z,20.9
2023-01-21T23:49:02.779Z,29.4
2023-01-21T23:51:50.231Z,96.4
2023-01-21T23:54:37.510Z,78.4
2023-01-21T23:57:24.990Z,27.7
